sensor_id;sensor_type;location;lat;lon;timestamp;temperature;humidity
6758;DHT22;3416;53.074;8.822;2022-10-31T00:02:02;15.20;99.90
6758;DHT22;3416;53.074;8.822;2022-10-31T00:04:29;15.20;99.90
6758;DHT22;3416;53.074;8.822;2022-10-31T00:06:56;15.20;99.90
6758;DHT22;3416;53.074;8.822;2022-10-31T00:09:23;15.10;99.90
6758;DHT22;3416;53.074;8.822;2022-10-31T00:11:50;15.10;99.90
6758;DHT22;3416;53.074;8.822;2022-10-31T00:14:17;15.00;99.90
6758;DHT22;3416;53.074;8.822;2022-10-31T00:16:45;15.00;99.90
6758;DHT22;3416;53.074;8.822;2022-10-31T00:19:12;15.00;99.90
6758;DHT22;3416;53.074;8.822;2022-10-31T00:21:39;14.90;99.90
6758;DHT22;3416;53.074;8.822;2022-10-31T00:24:06;14.90;99.90
6758;DHT22;3416;53.074;8.822;2022-10-31T00:26:33;14.90;99.90
6758;DHT22;3416;53.074;8.822;2022-10-31T00:29:00;14.90;99.90
6758;DHT22;3416;53.074;8.822;2022-10-31T00:31:27;14.90;99.90
6758;DHT22;3416;53.074;8.822;2022-10-31T00:33:56;14.80;99.90
6758;DHT22;3416;53.074;8.822;2022-10-31T00:36:23;14.90;99.90
6758;DHT22;3416;53.074;8.822;2022-10-31T00:38:50;14.80;99.90
6758;DHT22;3416;53.074;8.822;2022-10-31T00:41:18;14.80;99.90
6758;DHT22;3416;53.074;8.822;2022-10-31T00:43:46;14.70;99.90
6758;DHT22;3416;53.074;8.822;2022-10-31T00:46:13;14.70;99.90
6758;DHT22;3416;53.074;8.822;2022-10-31T00:48:40;14.70;99.90
6758;DHT22;3416;53.074;8.822;2022-10-31T00:51:09;14.60;99.90
6758;DHT22;3416;53.074;8.822;2022-10-31T00:53:36;14.60;99.90
6758;DHT22;3416;53.074;8.822;2022-10-31T00:56:03;14.60;99.90
6758;DHT22;3416;53.074;8.822;2022-10-31T00:58:30;14.50;99.90
6758;DHT22;3416;53.074;8.822;2022-10-31T01:00:57;14.50;99.90
6758;DHT22;3416;53.074;8.822;2022-10-31T01:03:26;14.50;99.90
6758;DHT22;3416;53.074;8.822;2022-10-31T01:05:56;14.40;99.90
6758;DHT22;3416;53.074;8.822;2022-10-31T01:08:25;14.40;99.90
6758;DHT22;3416;53.074;8.822;2022-10-31T01:11:00;14.40;99.90
6758;DHT22;3416;53.074;8.822;2022-10-31T01:13:27;14.40;99.90
6758;DHT22;3416;53.074;8.822;2022-10-31T01:15:54;14.50;99.90
6758;DHT22;3416;53.074;8.822;2022-10-31T01:18:22;14.40;99.90
6758;DHT22;3416;53.074;8.822;2022-10-31T01:20:57;14.40;99.90
6758;DHT22;3416;53.074;8.822;2022-10-31T01:23:26;14.30;99.90
6758;DHT22;3416;53.074;8.822;2022-10-31T01:26:01;14.30;99.90
6758;DHT22;3416;53.074;8.822;2022-10-31T01:28:28;14.30;99.90
6758;DHT22;3416;53.074;8.822;2022-10-31T01:30:55;14.30;99.90
6758;DHT22;3416;53.074;8.822;2022-10-31T01:33:22;14.20;99.90
6758;DHT22;3416;53.074;8.822;2022-10-31T01:35:49;14.20;99.90
6758;DHT22;3416;53.074;8.822;2022-10-31T01:38:15;14.20;99.90
6758;DHT22;3416;53.074;8.822;2022-10-31T01:40:43;14.20;99.90
6758;DHT22;3416;53.074;8.822;2022-10-31T01:43:12;14.10;99.90
6758;DHT22;3416;53.074;8.822;2022-10-31T01:45:40;14.10;99.90
6758;DHT22;3416;53.074;8.822;2022-10-31T01:48:12;14.10;99.90
6758;DHT22;3416;53.074;8.822;2022-10-31T01:50:40;14.00;99.90
6758;DHT22;3416;53.074;8.822;2022-10-31T01:53:10;14.00;99.90
6758;DHT22;3416;53.074;8.822;2022-10-31T01:55:39;14.00;99.90
6758;DHT22;3416;53.074;8.822;2022-10-31T01:58:11;13.90;99.90
6758;DHT22;3416;53.074;8.822;2022-10-31T02:00:39;13.90;99.90
6758;DHT22;3416;53.074;8.822;2022-10-31T02:03:07;13.90;99.90
6758;DHT22;3416;53.074;8.822;2022-10-31T02:05:34;13.90;99.90
6758;DHT22;3416;53.074;8.822;2022-10-31T02:08:06;14.00;99.90
6758;DHT22;3416;53.074;8.822;2022-10-31T02:10:34;13.90;99.90
6758;DHT22;3416;53.074;8.822;2022-10-31T02:13:05;13.90;99.90
6758;DHT22;3416;53.074;8.822;2022-10-31T02:15:35;13.90;99.90
6758;DHT22;3416;53.074;8.822;2022-10-31T02:18:03;13.90;99.90
6758;DHT22;3416;53.074;8.822;2022-10-31T02:20:34;13.90;99.90
6758;DHT22;3416;53.074;8.822;2022-10-31T02:23:23;13.90;99.90
6758;DHT22;3416;53.074;8.822;2022-10-31T02:26:14;13.90;99.90
6758;DHT22;3416;53.074;8.822;2022-10-31T02:29:15;13.80;99.90
6758;DHT22;3416;53.074;8.822;2022-10-31T02:31:56;13.80;99.90
6758;DHT22;3416;53.074;8.822;2022-10-31T02:34:34;13.80;99.90
6758;DHT22;3416;53.074;8.822;2022-10-31T02:37:11;13.70;99.90
6758;DHT22;3416;53.074;8.822;2022-10-31T02:39:43;13.80;99.90
6758;DHT22;3416;53.074;8.822;2022-10-31T02:42:16;13.70;99.90
6758;DHT22;3416;53.074;8.822;2022-10-31T02:44:49;13.70;99.90
6758;DHT22;3416;53.074;8.822;2022-10-31T02:47:23;13.70;99.90
6758;DHT22;3416;53.074;8.822;2022-10-31T02:49:56;13.70;99.90
6758;DHT22;3416;53.074;8.822;2022-10-31T02:52:26;13.70;99.90
6758;DHT22;3416;53.074;8.822;2022-10-31T02:54:54;13.70;99.90
6758;DHT22;3416;53.074;8.822;2022-10-31T02:57:24;13.70;99.90
6758;DHT22;3416;53.074;8.822;2022-10-31T02:59:54;13.70;99.90
6758;DHT22;3416;53.074;8.822;2022-10-31T03:02:43;13.60;99.90
6758;DHT22;3416;53.074;8.822;2022-10-31T03:05:32;13.70;99.90
6758;DHT22;3416;53.074;8.822;2022-10-31T03:08:05;13.60;99.90
6758;DHT22;3416;53.074;8.822;2022-10-31T03:10:38;13.60;99.90
6758;DHT22;3416;53.074;8.822;2022-10-31T03:13:10;13.60;99.90
6758;DHT22;3416;53.074;8.822;2022-10-31T03:15:40;13.70;99.90
6758;DHT22;3416;53.074;8.822;2022-10-31T03:18:13;13.70;99.90
6758;DHT22;3416;53.074;8.822;2022-10-31T03:20:45;13.70;99.90
6758;DHT22;3416;53.074;8.822;2022-10-31T03:23:15;13.70;99.90
6758;DHT22;3416;53.074;8.822;2022-10-31T03:25:43;13.70;99.90
6758;DHT22;3416;53.074;8.822;2022-10-31T03:28:12;13.60;99.90
6758;DHT22;3416;53.074;8.822;2022-10-31T03:30:42;13.60;99.90
6758;DHT22;3416;53.074;8.822;2022-10-31T03:33:17;13.50;99.90
6758;DHT22;3416;53.074;8.822;2022-10-31T03:35:47;13.50;99.90
6758;DHT22;3416;53.074;8.822;2022-10-31T03:38:15;13.50;99.90
6758;DHT22;3416;53.074;8.822;2022-10-31T03:40:45;13.50;99.90
6758;DHT22;3416;53.074;8.822;2022-10-31T03:43:17;13.50;99.90
6758;DHT22;3416;53.074;8.822;2022-10-31T03:45:46;13.40;99.90
6758;DHT22;3416;53.074;8.822;2022-10-31T03:48:16;13.40;99.90
6758;DHT22;3416;53.074;8.822;2022-10-31T03:50:49;13.40;99.90
6758;DHT22;3416;53.074;8.822;2022-10-31T03:53:24;13.40;99.90
6758;DHT22;3416;53.074;8.822;2022-10-31T03:55:55;13.30;99.90
6758;DHT22;3416;53.074;8.822;2022-10-31T03:58:27;13.30;99.90
6758;DHT22;3416;53.074;8.822;2022-10-31T04:00:56;13.30;99.90
6758;DHT22;3416;53.074;8.822;2022-10-31T04:03:26;13.20;99.90
6758;DHT22;3416;53.074;8.822;2022-10-31T04:05:58;13.20;99.90
6758;DHT22;3416;53.074;8.822;2022-10-31T04:08:28;13.20;99.90
6758;DHT22;3416;53.074;8.822;2022-10-31T04:10:57;13.20;99.90
6758;DHT22;3416;53.074;8.822;2022-10-31T04:13:27;13.10;99.90
6758;DHT22;3416;53.074;8.822;2022-10-31T04:15:56;13.10;99.90
6758;DHT22;3416;53.074;8.822;2022-10-31T04:18:25;13.20;99.90
6758;DHT22;3416;53.074;8.822;2022-10-31T04:20:59;13.10;99.90
6758;DHT22;3416;53.074;8.822;2022-10-31T04:23:27;13.10;99.90
6758;DHT22;3416;53.074;8.822;2022-10-31T04:25:54;13.10;99.90
6758;DHT22;3416;53.074;8.822;2022-10-31T04:28:21;13.20;99.90
6758;DHT22;3416;53.074;8.822;2022-10-31T04:30:48;13.20;99.90
6758;DHT22;3416;53.074;8.822;2022-10-31T04:33:16;13.20;99.90
6758;DHT22;3416;53.074;8.822;2022-10-31T04:35:44;13.20;99.90
6758;DHT22;3416;53.074;8.822;2022-10-31T04:38:11;13.20;99.90
6758;DHT22;3416;53.074;8.822;2022-10-31T04:40:38;13.20;99.90
6758;DHT22;3416;53.074;8.822;2022-10-31T04:43:05;13.20;99.90
6758;DHT22;3416;53.074;8.822;2022-10-31T04:45:32;13.10;99.90
6758;DHT22;3416;53.074;8.822;2022-10-31T04:47:58;13.10;99.90
6758;DHT22;3416;53.074;8.822;2022-10-31T04:50:25;13.10;99.90
6758;DHT22;3416;53.074;8.822;2022-10-31T04:52:54;13.10;99.90
6758;DHT22;3416;53.074;8.822;2022-10-31T04:55:21;13.10;99.90
6758;DHT22;3416;53.074;8.822;2022-10-31T04:57:49;13.00;99.90
6758;DHT22;3416;53.074;8.822;2022-10-31T05:00:18;13.00;99.90
6758;DHT22;3416;53.074;8.822;2022-10-31T05:02:45;12.90;99.90
6758;DHT22;3416;53.074;8.822;2022-10-31T05:05:13;12.90;99.90
6758;DHT22;3416;53.074;8.822;2022-10-31T05:07:41;12.90;99.90
6758;DHT22;3416;53.074;8.822;2022-10-31T05:10:10;12.90;99.90
6758;DHT22;3416;53.074;8.822;2022-10-31T05:12:44;12.80;99.90
6758;DHT22;3416;53.074;8.822;2022-10-31T05:15:11;12.80;99.90
6758;DHT22;3416;53.074;8.822;2022-10-31T05:17:38;12.80;99.90
6758;DHT22;3416;53.074;8.822;2022-10-31T05:20:06;12.80;99.90
6758;DHT22;3416;53.074;8.822;2022-10-31T05:22:33;12.70;99.90
6758;DHT22;3416;53.074;8.822;2022-10-31T05:25:00;12.80;99.90
6758;DHT22;3416;53.074;8.822;2022-10-31T05:27:38;12.80;99.90
6758;DHT22;3416;53.074;8.822;2022-10-31T05:30:06;12.80;99.90
6758;DHT22;3416;53.074;8.822;2022-10-31T05:32:37;12.80;99.90
6758;DHT22;3416;53.074;8.822;2022-10-31T05:35:05;12.80;99.90
6758;DHT22;3416;53.074;8.822;2022-10-31T05:37:33;12.80;99.90
6758;DHT22;3416;53.074;8.822;2022-10-31T05:40:00;12.70;99.90
6758;DHT22;3416;53.074;8.822;2022-10-31T05:42:29;12.70;99.90
6758;DHT22;3416;53.074;8.822;2022-10-31T05:44:58;12.70;99.90
6758;DHT22;3416;53.074;8.822;2022-10-31T05:47:27;12.70;99.90
6758;DHT22;3416;53.074;8.822;2022-10-31T05:49:54;12.70;99.90
6758;DHT22;3416;53.074;8.822;2022-10-31T05:52:21;12.70;99.90
6758;DHT22;3416;53.074;8.822;2022-10-31T05:54:47;12.70;99.90
6758;DHT22;3416;53.074;8.822;2022-10-31T05:57:14;12.70;99.90
6758;DHT22;3416;53.074;8.822;2022-10-31T05:59:41;12.70;99.90
6758;DHT22;3416;53.074;8.822;2022-10-31T06:02:10;12.60;99.90
6758;DHT22;3416;53.074;8.822;2022-10-31T06:04:37;12.60;99.90
6758;DHT22;3416;53.074;8.822;2022-10-31T06:07:03;12.60;99.90
6758;DHT22;3416;53.074;8.822;2022-10-31T06:09:30;12.50;99.90
6758;DHT22;3416;53.074;8.822;2022-10-31T06:11:57;12.50;99.90
6758;DHT22;3416;53.074;8.822;2022-10-31T06:14:25;12.50;99.90
6758;DHT22;3416;53.074;8.822;2022-10-31T06:16:54;12.40;99.90
6758;DHT22;3416;53.074;8.822;2022-10-31T06:19:22;12.50;99.90
6758;DHT22;3416;53.074;8.822;2022-10-31T06:21:49;12.40;99.90
6758;DHT22;3416;53.074;8.822;2022-10-31T06:24:16;12.40;99.90
6758;DHT22;3416;53.074;8.822;2022-10-31T06:26:43;12.40;99.90
6758;DHT22;3416;53.074;8.822;2022-10-31T06:29:10;12.40;99.90
6758;DHT22;3416;53.074;8.822;2022-10-31T06:31:36;12.30;99.90
6758;DHT22;3416;53.074;8.822;2022-10-31T06:34:03;12.30;99.90
6758;DHT22;3416;53.074;8.822;2022-10-31T06:36:32;12.30;99.90
6758;DHT22;3416;53.074;8.822;2022-10-31T06:39:00;12.30;99.90
6758;DHT22;3416;53.074;8.822;2022-10-31T06:41:27;12.30;99.90
6758;DHT22;3416;53.074;8.822;2022-10-31T06:43:53;12.20;99.90
6758;DHT22;3416;53.074;8.822;2022-10-31T06:46:21;12.30;99.90
6758;DHT22;3416;53.074;8.822;2022-10-31T06:48:48;12.30;99.90
6758;DHT22;3416;53.074;8.822;2022-10-31T06:51:15;12.40;99.90
6758;DHT22;3416;53.074;8.822;2022-10-31T06:53:43;12.40;99.90
6758;DHT22;3416;53.074;8.822;2022-10-31T06:56:10;12.40;99.90
6758;DHT22;3416;53.074;8.822;2022-10-31T06:58:38;12.40;99.90
6758;DHT22;3416;53.074;8.822;2022-10-31T07:01:06;12.30;99.90
6758;DHT22;3416;53.074;8.822;2022-10-31T07:03:34;12.40;99.90
6758;DHT22;3416;53.074;8.822;2022-10-31T07:06:01;12.50;99.90
6758;DHT22;3416;53.074;8.822;2022-10-31T07:08:27;12.60;99.90
6758;DHT22;3416;53.074;8.822;2022-10-31T07:10:58;12.60;99.90
6758;DHT22;3416;53.074;8.822;2022-10-31T07:13:25;12.60;99.90
6758;DHT22;3416;53.074;8.822;2022-10-31T07:15:52;12.60;99.90
6758;DHT22;3416;53.074;8.822;2022-10-31T07:18:20;12.60;99.90
6758;DHT22;3416;53.074;8.822;2022-10-31T07:20:48;12.50;99.90
6758;DHT22;3416;53.074;8.822;2022-10-31T07:23:14;12.50;99.90
6758;DHT22;3416;53.074;8.822;2022-10-31T07:25:42;12.50;99.90
6758;DHT22;3416;53.074;8.822;2022-10-31T07:28:10;12.50;99.90
6758;DHT22;3416;53.074;8.822;2022-10-31T07:30:37;12.60;99.90
6758;DHT22;3416;53.074;8.822;2022-10-31T07:33:05;12.70;99.90
6758;DHT22;3416;53.074;8.822;2022-10-31T07:35:32;12.70;99.90
6758;DHT22;3416;53.074;8.822;2022-10-31T07:38:07;12.70;99.90
6758;DHT22;3416;53.074;8.822;2022-10-31T07:40:34;12.80;99.90
6758;DHT22;3416;53.074;8.822;2022-10-31T07:43:01;12.80;99.90
6758;DHT22;3416;53.074;8.822;2022-10-31T07:45:29;12.90;99.90
6758;DHT22;3416;53.074;8.822;2022-10-31T07:47:56;12.90;99.90
6758;DHT22;3416;53.074;8.822;2022-10-31T07:50:25;13.00;99.90
6758;DHT22;3416;53.074;8.822;2022-10-31T07:52:59;13.00;99.90
6758;DHT22;3416;53.074;8.822;2022-10-31T07:55:26;13.10;99.90
6758;DHT22;3416;53.074;8.822;2022-10-31T07:57:57;13.20;99.90
6758;DHT22;3416;53.074;8.822;2022-10-31T08:00:24;13.20;99.90
6758;DHT22;3416;53.074;8.822;2022-10-31T08:02:59;13.30;99.90
6758;DHT22;3416;53.074;8.822;2022-10-31T08:05:27;13.30;99.90
6758;DHT22;3416;53.074;8.822;2022-10-31T08:07:54;13.30;99.90
6758;DHT22;3416;53.074;8.822;2022-10-31T08:10:22;13.20;99.90
6758;DHT22;3416;53.074;8.822;2022-10-31T08:12:55;13.30;99.90
6758;DHT22;3416;53.074;8.822;2022-10-31T08:15:23;13.40;99.90
6758;DHT22;3416;53.074;8.822;2022-10-31T08:17:50;13.30;99.90
6758;DHT22;3416;53.074;8.822;2022-10-31T08:20:18;13.40;99.90
6758;DHT22;3416;53.074;8.822;2022-10-31T08:22:55;13.50;99.90
6758;DHT22;3416;53.074;8.822;2022-10-31T08:25:23;13.60;99.90
6758;DHT22;3416;53.074;8.822;2022-10-31T08:27:52;13.50;99.90
6758;DHT22;3416;53.074;8.822;2022-10-31T08:30:20;13.30;99.90
6758;DHT22;3416;53.074;8.822;2022-10-31T08:32:47;13.30;99.90
6758;DHT22;3416;53.074;8.822;2022-10-31T08:35:14;13.30;99.90
6758;DHT22;3416;53.074;8.822;2022-10-31T08:37:44;13.30;99.90
6758;DHT22;3416;53.074;8.822;2022-10-31T08:40:11;13.50;99.90
6758;DHT22;3416;53.074;8.822;2022-10-31T08:42:38;13.60;99.90
6758;DHT22;3416;53.074;8.822;2022-10-31T08:45:06;13.90;99.90
6758;DHT22;3416;53.074;8.822;2022-10-31T08:47:33;14.10;99.90
6758;DHT22;3416;53.074;8.822;2022-10-31T08:50:00;14.10;99.90
6758;DHT22;3416;53.074;8.822;2022-10-31T08:52:27;14.10;99.90
6758;DHT22;3416;53.074;8.822;2022-10-31T08:54:55;14.20;99.90
6758;DHT22;3416;53.074;8.822;2022-10-31T08:57:22;14.30;99.90
6758;DHT22;3416;53.074;8.822;2022-10-31T08:59:50;14.50;99.90
6758;DHT22;3416;53.074;8.822;2022-10-31T09:02:18;14.70;99.90
6758;DHT22;3416;53.074;8.822;2022-10-31T09:04:45;14.80;99.90
6758;DHT22;3416;53.074;8.822;2022-10-31T09:07:12;14.80;99.90
6758;DHT22;3416;53.074;8.822;2022-10-31T09:09:39;14.80;99.90
6758;DHT22;3416;53.074;8.822;2022-10-31T09:12:07;14.90;99.90
6758;DHT22;3416;53.074;8.822;2022-10-31T09:14:36;14.90;99.90
6758;DHT22;3416;53.074;8.822;2022-10-31T09:17:03;14.90;99.90
6758;DHT22;3416;53.074;8.822;2022-10-31T09:19:30;15.10;99.90
6758;DHT22;3416;53.074;8.822;2022-10-31T09:21:57;15.20;99.90
6758;DHT22;3416;53.074;8.822;2022-10-31T09:24:24;15.20;99.90
6758;DHT22;3416;53.074;8.822;2022-10-31T09:26:51;15.30;99.90
6758;DHT22;3416;53.074;8.822;2022-10-31T09:29:19;15.30;99.90
6758;DHT22;3416;53.074;8.822;2022-10-31T09:31:46;15.30;99.90
6758;DHT22;3416;53.074;8.822;2022-10-31T09:34:13;15.40;99.90
6758;DHT22;3416;53.074;8.822;2022-10-31T09:36:40;15.60;99.90
6758;DHT22;3416;53.074;8.822;2022-10-31T09:39:08;15.70;99.90
6758;DHT22;3416;53.074;8.822;2022-10-31T09:41:52;15.70;99.90
6758;DHT22;3416;53.074;8.822;2022-10-31T09:44:30;15.60;99.90
6758;DHT22;3416;53.074;8.822;2022-10-31T09:47:05;15.80;99.90
6758;DHT22;3416;53.074;8.822;2022-10-31T09:49:49;15.80;99.90
6758;DHT22;3416;53.074;8.822;2022-10-31T09:52:23;16.20;99.90
6758;DHT22;3416;53.074;8.822;2022-10-31T09:54:54;17.00;99.90
6758;DHT22;3416;53.074;8.822;2022-10-31T09:57:25;18.00;99.90
6758;DHT22;3416;53.074;8.822;2022-10-31T09:59:55;18.40;99.90
6758;DHT22;3416;53.074;8.822;2022-10-31T10:02:25;18.70;99.90
6758;DHT22;3416;53.074;8.822;2022-10-31T10:04:57;19.00;99.90
6758;DHT22;3416;53.074;8.822;2022-10-31T10:07:35;19.50;99.90
6758;DHT22;3416;53.074;8.822;2022-10-31T10:10:14;20.00;99.90
6758;DHT22;3416;53.074;8.822;2022-10-31T10:13:01;20.20;99.90
6758;DHT22;3416;53.074;8.822;2022-10-31T10:15:47;20.40;99.90
6758;DHT22;3416;53.074;8.822;2022-10-31T10:18:25;20.40;99.90
6758;DHT22;3416;53.074;8.822;2022-10-31T10:21:04;20.20;99.90
6758;DHT22;3416;53.074;8.822;2022-10-31T10:23:52;20.30;99.90
6758;DHT22;3416;53.074;8.822;2022-10-31T10:26:22;20.30;99.90
6758;DHT22;3416;53.074;8.822;2022-10-31T10:28:57;19.90;99.90
6758;DHT22;3416;53.074;8.822;2022-10-31T10:31:30;19.20;99.90
6758;DHT22;3416;53.074;8.822;2022-10-31T10:34:02;18.90;99.90
6758;DHT22;3416;53.074;8.822;2022-10-31T10:36:38;18.40;99.90
6758;DHT22;3416;53.074;8.822;2022-10-31T10:39:14;18.30;99.90
6758;DHT22;3416;53.074;8.822;2022-10-31T10:41:44;18.30;99.90
6758;DHT22;3416;53.074;8.822;2022-10-31T10:44:27;17.90;99.90
6758;DHT22;3416;53.074;8.822;2022-10-31T10:47:13;18.00;99.90
6758;DHT22;3416;53.074;8.822;2022-10-31T10:49:58;18.20;99.90
6758;DHT22;3416;53.074;8.822;2022-10-31T10:52:31;18.30;99.90
6758;DHT22;3416;53.074;8.822;2022-10-31T10:55:05;18.40;99.90
6758;DHT22;3416;53.074;8.822;2022-10-31T10:57:53;18.60;99.90
6758;DHT22;3416;53.074;8.822;2022-10-31T11:00:23;18.80;99.90
6758;DHT22;3416;53.074;8.822;2022-10-31T11:02:54;18.90;99.90
6758;DHT22;3416;53.074;8.822;2022-10-31T11:05:28;19.10;99.90
6758;DHT22;3416;53.074;8.822;2022-10-31T11:07:56;19.30;99.90
6758;DHT22;3416;53.074;8.822;2022-10-31T11:10:23;19.60;99.90
6758;DHT22;3416;53.074;8.822;2022-10-31T11:13:01;19.60;99.90
6758;DHT22;3416;53.074;8.822;2022-10-31T11:15:31;19.50;99.90
6758;DHT22;3416;53.074;8.822;2022-10-31T11:18:00;19.50;99.90
6758;DHT22;3416;53.074;8.822;2022-10-31T11:20:31;19.20;99.90
6758;DHT22;3416;53.074;8.822;2022-10-31T11:23:10;18.90;99.90
6758;DHT22;3416;53.074;8.822;2022-10-31T11:25:48;18.90;99.90
6758;DHT22;3416;53.074;8.822;2022-10-31T11:28:17;18.70;99.90
6758;DHT22;3416;53.074;8.822;2022-10-31T11:30:48;18.50;99.90
6758;DHT22;3416;53.074;8.822;2022-10-31T11:33:23;18.40;99.90
6758;DHT22;3416;53.074;8.822;2022-10-31T11:35:52;18.30;99.90
6758;DHT22;3416;53.074;8.822;2022-10-31T11:38:21;18.10;99.90
6758;DHT22;3416;53.074;8.822;2022-10-31T11:40:55;18.00;99.90
6758;DHT22;3416;53.074;8.822;2022-10-31T11:43:23;17.70;99.90
6758;DHT22;3416;53.074;8.822;2022-10-31T11:45:52;17.80;99.90
6758;DHT22;3416;53.074;8.822;2022-10-31T11:48:22;17.80;99.90
6758;DHT22;3416;53.074;8.822;2022-10-31T11:50:52;17.70;99.90
6758;DHT22;3416;53.074;8.822;2022-10-31T11:53:25;17.50;99.90
6758;DHT22;3416;53.074;8.822;2022-10-31T11:56:03;17.50;99.90
6758;DHT22;3416;53.074;8.822;2022-10-31T11:58:31;17.50;99.90
6758;DHT22;3416;53.074;8.822;2022-10-31T12:00:58;17.50;99.90
6758;DHT22;3416;53.074;8.822;2022-10-31T12:03:41;17.30;99.90
6758;DHT22;3416;53.074;8.822;2022-10-31T12:06:13;17.20;99.90
6758;DHT22;3416;53.074;8.822;2022-10-31T12:08:42;17.10;99.90
6758;DHT22;3416;53.074;8.822;2022-10-31T12:11:18;17.10;99.90
6758;DHT22;3416;53.074;8.822;2022-10-31T12:13:58;16.90;99.90
6758;DHT22;3416;53.074;8.822;2022-10-31T12:16:30;16.90;99.90
6758;DHT22;3416;53.074;8.822;2022-10-31T12:19:04;16.80;99.90
6758;DHT22;3416;53.074;8.822;2022-10-31T12:21:50;16.70;99.90
6758;DHT22;3416;53.074;8.822;2022-10-31T12:24:29;16.70;99.90
6758;DHT22;3416;53.074;8.822;2022-10-31T12:27:08;16.50;99.90
6758;DHT22;3416;53.074;8.822;2022-10-31T12:29:56;16.40;99.90
6758;DHT22;3416;53.074;8.822;2022-10-31T12:32:35;16.30;99.90
6758;DHT22;3416;53.074;8.822;2022-10-31T12:38:43;16.30;99.90
6758;DHT22;3416;53.074;8.822;2022-10-31T12:41:39;16.30;99.90
6758;DHT22;3416;53.074;8.822;2022-10-31T12:44:26;16.30;99.90
6758;DHT22;3416;53.074;8.822;2022-10-31T12:47:11;16.30;99.90
6758;DHT22;3416;53.074;8.822;2022-10-31T12:49:49;16.40;99.90
6758;DHT22;3416;53.074;8.822;2022-10-31T12:52:39;16.50;99.90
6758;DHT22;3416;53.074;8.822;2022-10-31T12:55:21;16.70;99.90
6758;DHT22;3416;53.074;8.822;2022-10-31T12:58:10;16.80;99.90
6758;DHT22;3416;53.074;8.822;2022-10-31T13:01:02;16.80;99.90
6758;DHT22;3416;53.074;8.822;2022-10-31T13:03:52;16.60;99.90
6758;DHT22;3416;53.074;8.822;2022-10-31T13:06:24;16.40;99.90
6758;DHT22;3416;53.074;8.822;2022-10-31T13:08:55;16.30;99.90
6758;DHT22;3416;53.074;8.822;2022-10-31T13:11:30;16.20;99.90
6758;DHT22;3416;53.074;8.822;2022-10-31T13:14:13;16.30;99.90
6758;DHT22;3416;53.074;8.822;2022-10-31T13:16:44;16.20;99.90
6758;DHT22;3416;53.074;8.822;2022-10-31T13:19:37;16.20;99.90
6758;DHT22;3416;53.074;8.822;2022-10-31T13:22:07;16.20;99.90
6758;DHT22;3416;53.074;8.822;2022-10-31T13:24:41;16.20;99.90
6758;DHT22;3416;53.074;8.822;2022-10-31T13:27:14;16.20;99.90
6758;DHT22;3416;53.074;8.822;2022-10-31T13:29:48;16.10;99.90
6758;DHT22;3416;53.074;8.822;2022-10-31T13:32:30;16.10;99.90
6758;DHT22;3416;53.074;8.822;2022-10-31T13:35:11;16.10;99.90
6758;DHT22;3416;53.074;8.822;2022-10-31T13:37:49;16.10;99.90
6758;DHT22;3416;53.074;8.822;2022-10-31T13:40:28;16.10;99.90
6758;DHT22;3416;53.074;8.822;2022-10-31T13:43:04;16.10;99.90
6758;DHT22;3416;53.074;8.822;2022-10-31T13:45:33;16.10;99.90
6758;DHT22;3416;53.074;8.822;2022-10-31T13:48:01;16.20;99.90
6758;DHT22;3416;53.074;8.822;2022-10-31T13:50:55;16.20;99.90
6758;DHT22;3416;53.074;8.822;2022-10-31T13:53:36;16.20;99.90
6758;DHT22;3416;53.074;8.822;2022-10-31T13:56:13;16.20;99.90
6758;DHT22;3416;53.074;8.822;2022-10-31T13:59:02;16.20;99.90
6758;DHT22;3416;53.074;8.822;2022-10-31T14:01:31;16.30;99.90
6758;DHT22;3416;53.074;8.822;2022-10-31T14:04:01;16.40;99.90
6758;DHT22;3416;53.074;8.822;2022-10-31T14:06:42;16.40;99.90
6758;DHT22;3416;53.074;8.822;2022-10-31T14:09:23;16.40;99.90
6758;DHT22;3416;53.074;8.822;2022-10-31T14:11:51;16.30;99.90
6758;DHT22;3416;53.074;8.822;2022-10-31T14:14:21;16.30;99.90
6758;DHT22;3416;53.074;8.822;2022-10-31T14:16:55;16.30;99.90
6758;DHT22;3416;53.074;8.822;2022-10-31T14:19:22;16.30;99.90
6758;DHT22;3416;53.074;8.822;2022-10-31T14:21:49;16.40;99.90
6758;DHT22;3416;53.074;8.822;2022-10-31T14:24:32;16.40;99.90
6758;DHT22;3416;53.074;8.822;2022-10-31T14:27:02;16.30;99.90
6758;DHT22;3416;53.074;8.822;2022-10-31T14:29:31;16.30;99.90
6758;DHT22;3416;53.074;8.822;2022-10-31T14:32:04;16.30;99.90
6758;DHT22;3416;53.074;8.822;2022-10-31T14:34:38;16.30;99.90
6758;DHT22;3416;53.074;8.822;2022-10-31T14:37:32;16.30;99.90
6758;DHT22;3416;53.074;8.822;2022-10-31T14:40:24;16.30;99.90
6758;DHT22;3416;53.074;8.822;2022-10-31T14:43:25;16.20;99.90
6758;DHT22;3416;53.074;8.822;2022-10-31T14:46:00;16.30;99.90
6758;DHT22;3416;53.074;8.822;2022-10-31T14:51:35;16.30;99.90
6758;DHT22;3416;53.074;8.822;2022-10-31T14:54:05;16.30;99.90
6758;DHT22;3416;53.074;8.822;2022-10-31T14:56:35;16.30;99.90
6758;DHT22;3416;53.074;8.822;2022-10-31T14:59:10;16.30;99.90
6758;DHT22;3416;53.074;8.822;2022-10-31T15:01:52;16.30;99.90
6758;DHT22;3416;53.074;8.822;2022-10-31T15:04:23;16.40;99.90
6758;DHT22;3416;53.074;8.822;2022-10-31T15:06:54;16.40;99.90
6758;DHT22;3416;53.074;8.822;2022-10-31T15:09:22;16.30;99.90
6758;DHT22;3416;53.074;8.822;2022-10-31T15:11:50;16.30;99.90
6758;DHT22;3416;53.074;8.822;2022-10-31T15:14:22;16.30;99.90
6758;DHT22;3416;53.074;8.822;2022-10-31T15:16:52;16.30;99.90
6758;DHT22;3416;53.074;8.822;2022-10-31T15:19:23;16.20;99.90
6758;DHT22;3416;53.074;8.822;2022-10-31T15:21:51;16.20;99.90
6758;DHT22;3416;53.074;8.822;2022-10-31T15:24:19;16.10;99.90
6758;DHT22;3416;53.074;8.822;2022-10-31T15:26:48;16.00;99.90
6758;DHT22;3416;53.074;8.822;2022-10-31T15:29:18;16.00;99.90
6758;DHT22;3416;53.074;8.822;2022-10-31T15:31:52;16.00;99.90
6758;DHT22;3416;53.074;8.822;2022-10-31T15:34:22;16.10;99.90
6758;DHT22;3416;53.074;8.822;2022-10-31T15:36:52;16.10;99.90
6758;DHT22;3416;53.074;8.822;2022-10-31T15:39:19;16.00;99.90
6758;DHT22;3416;53.074;8.822;2022-10-31T15:41:49;16.00;99.90
6758;DHT22;3416;53.074;8.822;2022-10-31T15:44:25;16.00;99.90
6758;DHT22;3416;53.074;8.822;2022-10-31T15:46:58;15.90;99.90
6758;DHT22;3416;53.074;8.822;2022-10-31T15:49:31;15.90;99.90
6758;DHT22;3416;53.074;8.822;2022-10-31T15:52:08;15.90;99.90
6758;DHT22;3416;53.074;8.822;2022-10-31T15:54:47;15.80;99.90
6758;DHT22;3416;53.074;8.822;2022-10-31T15:57:15;15.80;99.90
6758;DHT22;3416;53.074;8.822;2022-10-31T15:59:46;15.70;99.90
6758;DHT22;3416;53.074;8.822;2022-10-31T16:02:19;15.70;99.90
6758;DHT22;3416;53.074;8.822;2022-10-31T16:04:53;15.70;99.90
6758;DHT22;3416;53.074;8.822;2022-10-31T16:07:21;15.70;99.90
6758;DHT22;3416;53.074;8.822;2022-10-31T16:09:51;15.60;99.90
6758;DHT22;3416;53.074;8.822;2022-10-31T16:12:20;15.60;99.90
6758;DHT22;3416;53.074;8.822;2022-10-31T16:14:47;15.60;99.90
6758;DHT22;3416;53.074;8.822;2022-10-31T16:17:20;15.60;99.90
6758;DHT22;3416;53.074;8.822;2022-10-31T16:19:51;15.50;99.90
6758;DHT22;3416;53.074;8.822;2022-10-31T16:22:24;15.60;99.90
6758;DHT22;3416;53.074;8.822;2022-10-31T16:24:55;15.60;99.90
6758;DHT22;3416;53.074;8.822;2022-10-31T16:27:28;15.50;99.90
6758;DHT22;3416;53.074;8.822;2022-10-31T16:29:56;15.50;99.90
6758;DHT22;3416;53.074;8.822;2022-10-31T16:32:32;15.50;99.90
6758;DHT22;3416;53.074;8.822;2022-10-31T16:35:01;15.50;99.90
6758;DHT22;3416;53.074;8.822;2022-10-31T16:37:28;15.40;99.90